createdAt,value
2022-10-04T00:02:15.791Z,2.90
2022-10-04T00:04:47.002Z,3.17
2022-10-04T00:07:17.828Z,3.30
2022-10-04T00:09:48.500Z,4.63
2022-10-04T00:12:22.088Z,3.23
2022-10-04T00:14:50.413Z,4.07
2022-10-04T00:17:23.213Z,2.93
2022-10-04T00:19:51.985Z,3.47
2022-10-04T00:22:21.488Z,3.03
2022-10-04T00:25:32.991Z,3.17
2022-10-04T00:28:28.893Z,3.33
2022-10-04T00:31:17.670Z,4.13
2022-10-04T00:33:45.488Z,3.20
2022-10-04T00:36:40.338Z,3.00
2022-10-04T00:39:16.577Z,3.30
2022-10-04T00:41:57.043Z,3.47
2022-10-04T00:44:28.928Z,3.47
2022-10-04T00:46:56.985Z,3.50
2022-10-04T00:49:27.995Z,3.20
2022-10-04T00:52:01.558Z,3.03
2022-10-04T00:54:33.486Z,4.10
2022-10-04T00:57:05.063Z,3.20
2022-10-04T00:59:35.514Z,3.17
2022-10-04T01:02:07.351Z,3.53
2022-10-04T01:04:42.465Z,2.90
2022-10-04T01:07:13.340Z,3.03
2022-10-04T01:09:48.131Z,2.87
2022-10-04T01:12:32.317Z,3.17
2022-10-04T01:15:05.483Z,3.37
2022-10-04T01:17:32.210Z,3.83
2022-10-04T01:19:58.898Z,4.63
2022-10-04T01:22:39.951Z,3.07
2022-10-04T01:25:07.052Z,4.80
2022-10-04T01:27:48.763Z,3.30
2022-10-04T01:30:17.175Z,3.00
2022-10-04T01:32:45.402Z,3.33
2022-10-04T01:35:14.277Z,2.50
2022-10-04T01:37:41.623Z,3.03
2022-10-04T01:40:09.813Z,3.43
2022-10-04T01:42:41.511Z,3.03
2022-10-04T01:45:15.426Z,2.73
2022-10-04T01:47:46.482Z,3.17
2022-10-04T01:50:17.441Z,3.87
2022-10-04T01:52:48.067Z,3.17
2022-10-04T01:55:18.914Z,3.23
2022-10-04T01:57:49.803Z,3.17
2022-10-04T02:00:17.231Z,2.87
2022-10-04T02:02:49.195Z,4.00
2022-10-04T02:05:19.363Z,5.00
2022-10-04T02:07:48.633Z,3.73
2022-10-04T02:10:19.330Z,3.70
2022-10-04T02:12:49.128Z,3.87
2022-10-04T02:15:18.274Z,3.20
2022-10-04T02:17:45.148Z,3.57
2022-10-04T02:20:15.689Z,2.70
2022-10-04T02:22:43.846Z,3.83
2022-10-04T02:25:13.148Z,4.53
2022-10-04T02:27:39.839Z,3.30
2022-10-04T02:30:09.286Z,3.57
2022-10-04T02:32:55.607Z,3.87
2022-10-04T02:35:23.357Z,3.67
2022-10-04T02:37:58.391Z,3.47
2022-10-04T02:40:30.359Z,3.20
2022-10-04T02:43:02.743Z,3.27
2022-10-04T02:45:37.607Z,3.60
2022-10-04T02:48:14.453Z,3.30
2022-10-04T02:50:46.557Z,3.13
2022-10-04T02:53:21.631Z,3.00
2022-10-04T02:55:49.330Z,2.80
2022-10-04T02:58:20.761Z,3.57
2022-10-04T03:00:50.718Z,2.90
2022-10-04T03:03:23.497Z,3.70
2022-10-04T03:05:59.842Z,4.67
2022-10-04T03:08:28.844Z,3.43
2022-10-04T03:10:58.550Z,2.77
2022-10-04T03:13:26.164Z,2.53
2022-10-04T03:15:53.134Z,2.97
2022-10-04T03:18:20.309Z,3.10
2022-10-04T03:20:47.674Z,3.07
2022-10-04T03:23:16.899Z,3.53
2022-10-04T03:25:50.509Z,4.07
2022-10-04T03:28:18.577Z,3.57
2022-10-04T03:30:48.664Z,3.77
2022-10-04T03:33:20.162Z,3.50
2022-10-04T03:35:51.272Z,4.27
2022-10-04T03:38:18.487Z,3.40
2022-10-04T03:40:52.231Z,3.73
2022-10-04T03:43:24.054Z,3.60
2022-10-04T03:45:51.862Z,3.13
2022-10-04T03:48:27.247Z,4.13
2022-10-04T03:50:54.681Z,3.53
2022-10-04T03:53:29.959Z,3.40
2022-10-04T03:56:02.104Z,5.27
2022-10-04T03:58:32.057Z,4.30
2022-10-04T04:01:11.095Z,3.20
2022-10-04T04:03:47.270Z,5.13
2022-10-04T04:06:17.567Z,4.20
2022-10-04T04:08:48.130Z,2.97
2022-10-04T04:11:19.428Z,4.10
2022-10-04T04:13:53.462Z,3.50
2022-10-04T04:16:25.425Z,3.37
2022-10-04T04:18:53.949Z,3.50
2022-10-04T04:21:22.878Z,3.97
2022-10-04T04:23:53.342Z,4.77
2022-10-04T04:26:27.596Z,3.53
2022-10-04T04:29:03.101Z,3.30
2022-10-04T04:31:33.549Z,3.80
2022-10-04T04:34:01.886Z,3.13
2022-10-04T04:36:30.342Z,4.10
2022-10-04T04:39:25.350Z,3.37
2022-10-04T04:41:52.257Z,3.67
2022-10-04T04:44:21.030Z,3.63
2022-10-04T04:46:48.247Z,3.53
2022-10-04T04:49:17.571Z,4.47
2022-10-04T04:51:49.978Z,3.60
2022-10-04T04:54:19.341Z,3.53
2022-10-04T04:56:48.620Z,2.97
2022-10-04T04:59:15.968Z,4.80
2022-10-04T05:01:45.595Z,4.13
2022-10-04T05:04:18.921Z,4.13
2022-10-04T05:06:48.744Z,3.70
2022-10-04T05:09:24.285Z,3.37
2022-10-04T05:11:52.756Z,4.10
2022-10-04T05:14:19.534Z,3.90
2022-10-04T05:16:50.126Z,5.17
2022-10-04T05:19:21.272Z,3.93
2022-10-04T05:21:50.008Z,4.50
2022-10-04T05:24:22.988Z,3.47
2022-10-04T05:26:52.073Z,3.20
2022-10-04T05:29:20.996Z,3.50
2022-10-04T05:31:55.364Z,4.53
2022-10-04T05:34:24.203Z,3.93
2022-10-04T05:37:06.174Z,3.57
2022-10-04T05:39:38.448Z,4.37
2022-10-04T05:42:13.969Z,4.03
2022-10-04T05:44:48.971Z,3.83
2022-10-04T05:47:22.097Z,4.63
2022-10-04T05:49:49.698Z,3.97
2022-10-04T05:52:27.460Z,2.80
2022-10-04T05:55:20.855Z,3.83
2022-10-04T05:58:00.891Z,3.37
2022-10-04T06:00:37.201Z,3.07
2022-10-04T06:03:24.658Z,4.13
2022-10-04T06:05:54.349Z,3.87
2022-10-04T06:08:33.818Z,5.10
2022-10-04T06:11:14.906Z,3.53
2022-10-04T06:14:05.033Z,4.10
2022-10-04T06:16:46.450Z,3.27
2022-10-04T06:19:57.235Z,4.33
2022-10-04T06:22:25.977Z,3.30
2022-10-04T06:24:57.404Z,3.27
2022-10-04T06:27:30.933Z,2.60
2022-10-04T06:30:02.273Z,4.07
2022-10-04T06:32:50.844Z,3.87
2022-10-04T06:35:35.136Z,3.90
2022-10-04T06:38:21.633Z,3.30
2022-10-04T06:41:16.743Z,3.10
2022-10-04T06:43:59.572Z,3.17
2022-10-04T06:46:31.200Z,3.13
2022-10-04T06:49:21.080Z,3.90
2022-10-04T06:52:09.763Z,3.37
2022-10-04T06:54:55.260Z,3.57
2022-10-04T06:57:48.211Z,3.33
2022-10-04T07:00:18.156Z,3.20
2022-10-04T07:02:49.886Z,3.23
2022-10-04T07:05:29.715Z,4.80
2022-10-04T07:08:09.613Z,3.40
2022-10-04T07:10:48.412Z,3.07
2022-10-04T07:13:39.617Z,4.93
2022-10-04T07:16:17.374Z,3.87
2022-10-04T07:18:51.502Z,3.87
2022-10-04T07:21:19.727Z,3.77
2022-10-04T07:23:51.646Z,5.27
2022-10-04T07:26:25.335Z,4.13
2022-10-04T07:29:13.834Z,3.33
2022-10-04T07:31:42.342Z,3.33
2022-10-04T07:34:11.546Z,4.57
2022-10-04T07:36:44.642Z,3.37
2022-10-04T07:39:15.468Z,4.07
2022-10-04T07:41:49.209Z,4.13
2022-10-04T07:44:22.423Z,3.70
2022-10-04T07:46:55.058Z,3.40
2022-10-04T07:49:22.843Z,4.47
2022-10-04T07:52:02.283Z,3.97
2022-10-04T07:54:38.528Z,3.63
2022-10-04T07:57:12.343Z,4.53
2022-10-04T07:59:44.959Z,4.37
2022-10-04T08:02:30.813Z,3.93
2022-10-04T08:05:12.371Z,4.10
2022-10-04T08:07:54.320Z,4.03
2022-10-04T08:10:29.080Z,3.50
2022-10-04T08:13:05.239Z,3.97
2022-10-04T08:15:37.034Z,4.50
2022-10-04T08:18:14.941Z,3.73
2022-10-04T08:20:48.235Z,3.83
2022-10-04T08:23:40.796Z,5.13
2022-10-04T08:26:37.026Z,5.33
2022-10-04T08:29:36.942Z,4.00
2022-10-04T08:32:13.493Z,4.40
2022-10-04T08:35:02.023Z,4.77
2022-10-04T08:37:38.880Z,3.87
2022-10-04T08:40:32.246Z,4.63
2022-10-04T08:43:37.531Z,4.50
2022-10-04T08:46:31.989Z,5.20
2022-10-04T08:49:27.582Z,4.73
2022-10-04T08:52:49.036Z,5.07
2022-10-04T08:55:53.436Z,5.10
2022-10-04T08:58:47.288Z,4.43
2022-10-04T09:01:38.772Z,4.57
2022-10-04T09:04:38.541Z,6.00
2022-10-04T09:07:27.407Z,5.67
2022-10-04T09:10:13.547Z,6.33
2022-10-04T09:12:59.887Z,5.27
2022-10-04T09:15:48.364Z,5.40
2022-10-04T09:18:36.832Z,4.70
2022-10-04T09:21:10.608Z,4.77
2022-10-04T09:24:11.262Z,5.30
2022-10-04T09:26:45.868Z,4.77
2022-10-04T09:29:42.739Z,4.67
2022-10-04T09:32:38.056Z,5.00
2022-10-04T09:35:20.806Z,4.20
2022-10-04T09:38:01.976Z,4.63
2022-10-04T09:40:59.508Z,4.27
2022-10-04T09:43:53.654Z,3.60
2022-10-04T09:46:56.628Z,3.63
2022-10-04T09:49:45.504Z,2.90
2022-10-04T09:52:34.805Z,3.33
2022-10-04T09:55:15.455Z,3.70
2022-10-04T09:58:01.175Z,3.37
2022-10-04T10:00:34.458Z,3.90
2022-10-04T10:03:41.238Z,4.07
2022-10-04T10:06:41.817Z,3.77
2022-10-04T10:09:21.570Z,3.17
2022-10-04T10:12:14.793Z,3.67
2022-10-04T10:15:13.012Z,2.83
2022-10-04T10:17:47.719Z,2.90
2022-10-04T10:20:31.719Z,2.83
2022-10-04T10:23:28.827Z,2.50
2022-10-04T10:26:26.766Z,2.87
2022-10-04T10:29:28.479Z,2.60
2022-10-04T10:32:08.884Z,2.60
2022-10-04T10:35:13.198Z,2.83
2022-10-04T10:37:50.662Z,2.83
2022-10-04T10:40:40.373Z,2.37
2022-10-04T10:43:32.797Z,2.90
2022-10-04T10:46:24.194Z,3.20
2022-10-04T10:49:22.762Z,3.60
2022-10-04T10:52:22.014Z,2.97
2022-10-04T10:55:30.277Z,2.97
2022-10-04T10:58:27.396Z,3.70
2022-10-04T11:01:11.775Z,3.20
2022-10-04T11:04:22.648Z,3.53
2022-10-04T11:07:29.129Z,3.27
2022-10-04T11:10:28.552Z,2.83
2022-10-04T11:13:20.694Z,3.53
2022-10-04T11:16:14.658Z,2.87
2022-10-04T11:19:19.349Z,3.90
2022-10-04T11:22:38.218Z,4.67
2022-10-04T11:25:39.086Z,3.53
2022-10-04T11:28:16.345Z,3.03
2022-10-04T11:31:24.798Z,3.30
2022-10-04T11:34:16.604Z,2.97
2022-10-04T11:37:01.153Z,3.37
2022-10-04T11:39:47.727Z,2.97
2022-10-04T11:42:25.962Z,2.70
2022-10-04T11:45:32.616Z,2.87
2022-10-04T11:48:10.600Z,3.50
2022-10-04T11:50:53.979Z,4.07
2022-10-04T11:54:03.409Z,3.80
2022-10-04T11:56:42.930Z,3.17
2022-10-04T11:59:38.641Z,3.47
2022-10-04T12:02:44.192Z,2.87
2022-10-04T12:05:48.776Z,3.20
2022-10-04T12:08:43.467Z,2.70
2022-10-04T12:12:12.417Z,2.90
2022-10-04T12:15:13.453Z,3.37
2022-10-04T12:18:10.902Z,2.83
2022-10-04T12:21:14.859Z,3.00
2022-10-04T12:23:59.605Z,3.10
2022-10-04T12:26:59.473Z,3.10
2022-10-04T12:30:01.405Z,3.30
2022-10-04T12:32:36.481Z,3.83
2022-10-04T12:35:18.558Z,3.97
2022-10-04T12:38:04.990Z,2.77
2022-10-04T12:40:42.100Z,2.53
2022-10-04T12:43:16.710Z,2.80
2022-10-04T12:45:58.468Z,3.00
2022-10-04T12:48:37.273Z,2.53
2022-10-04T12:51:18.500Z,2.70
2022-10-04T12:53:54.518Z,2.30
2022-10-04T12:56:50.844Z,2.33
2022-10-04T12:59:43.766Z,2.70
2022-10-04T13:02:26.352Z,2.63
2022-10-04T13:04:58.746Z,2.40
2022-10-04T13:07:44.372Z,3.13
2022-10-04T13:10:30.534Z,2.33
2022-10-04T13:13:30.636Z,2.73
2022-10-04T13:19:08.660Z,2.80
2022-10-04T13:22:11.833Z,3.80
2022-10-04T13:24:57.427Z,2.90
2022-10-04T13:27:39.971Z,2.87
2022-10-04T13:30:19.528Z,3.10
2022-10-04T13:32:56.014Z,3.07
2022-10-04T13:35:27.064Z,3.13
2022-10-04T13:38:19.837Z,3.27
2022-10-04T13:41:01.882Z,3.10
2022-10-04T13:43:49.212Z,2.33
2022-10-04T13:46:27.984Z,2.80
2022-10-04T13:49:06.695Z,2.97
2022-10-04T13:51:47.818Z,2.73
2022-10-04T13:54:47.023Z,2.60
2022-10-04T13:57:22.582Z,2.67
2022-10-04T13:59:58.941Z,2.50
2022-10-04T14:03:00.757Z,1.87
2022-10-04T14:06:12.656Z,2.47
2022-10-04T14:09:13.038Z,2.53
2022-10-04T14:12:18.726Z,2.40
2022-10-04T14:15:35.478Z,2.40
2022-10-04T14:18:30.500Z,2.70
2022-10-04T14:21:32.053Z,2.80
2022-10-04T14:24:55.726Z,2.10
2022-10-04T14:27:49.811Z,2.40
2022-10-04T14:30:22.490Z,2.10
2022-10-04T14:33:13.311Z,2.10
2022-10-04T14:35:47.969Z,2.47
2022-10-04T14:38:46.667Z,2.40
2022-10-04T14:41:51.592Z,2.57
2022-10-04T14:45:13.321Z,2.43
2022-10-04T14:48:08.291Z,3.57
2022-10-04T14:50:46.784Z,2.43
2022-10-04T14:53:22.907Z,2.00
2022-10-04T14:56:23.410Z,2.07
2022-10-04T14:58:59.778Z,2.03
2022-10-04T15:01:27.805Z,2.37
2022-10-04T15:04:16.985Z,2.33
2022-10-04T15:06:48.553Z,1.80
2022-10-04T15:09:41.852Z,1.70
2022-10-04T15:15:59.770Z,14.93
2022-10-04T15:18:39.208Z,2.20
2022-10-04T15:21:32.373Z,2.07
2022-10-04T15:24:24.811Z,2.20
2022-10-04T15:27:27.370Z,1.90
2022-10-04T15:30:02.973Z,2.73
2022-10-04T15:32:36.093Z,2.37
2022-10-04T15:35:17.266Z,2.00
2022-10-04T15:37:49.899Z,1.77
2022-10-04T15:40:41.406Z,1.97
2022-10-04T15:43:23.292Z,1.90
2022-10-04T15:46:03.847Z,1.30
2022-10-04T15:48:49.239Z,2.03
2022-10-04T15:51:26.224Z,2.70
2022-10-04T15:54:06.803Z,2.30
2022-10-04T15:56:42.718Z,2.67
2022-10-04T15:59:27.575Z,2.30
2022-10-04T16:02:20.247Z,1.93
2022-10-04T16:04:59.797Z,2.40
2022-10-04T16:08:04.985Z,3.73
2022-10-04T16:10:54.513Z,3.67
2022-10-04T16:13:39.362Z,3.80
2022-10-04T16:16:49.188Z,2.50
2022-10-04T16:19:36.299Z,2.30
2022-10-04T16:22:15.303Z,2.70
2022-10-04T16:24:47.370Z,2.33
2022-10-04T16:27:49.099Z,2.47
2022-10-04T16:30:27.960Z,2.40
2022-10-04T16:33:09.813Z,3.07
2022-10-04T16:35:42.124Z,2.80
2022-10-04T16:38:22.976Z,3.17
2022-10-04T16:41:07.584Z,3.50
2022-10-04T16:43:37.430Z,3.57
2022-10-04T16:46:13.985Z,4.40
2022-10-04T16:48:51.764Z,4.27
2022-10-04T16:52:04.341Z,4.07
2022-10-04T16:55:09.875Z,4.03
2022-10-04T16:57:38.419Z,4.13
2022-10-04T17:00:31.138Z,3.93
2022-10-04T17:03:18.051Z,4.43
2022-10-04T17:05:53.271Z,4.27
2022-10-04T17:08:29.222Z,4.50
2022-10-04T17:11:21.923Z,4.40
2022-10-04T17:13:56.649Z,4.53
2022-10-04T17:16:32.276Z,5.00
2022-10-04T17:19:20.432Z,4.97
2022-10-04T17:21:54.793Z,4.97
2022-10-04T17:24:28.854Z,4.70
2022-10-04T17:27:12.406Z,4.43
2022-10-04T17:29:53.773Z,4.90
2022-10-04T17:32:26.654Z,5.20
2022-10-04T17:35:08.373Z,4.50
2022-10-04T17:37:43.989Z,6.67
2022-10-04T17:40:32.346Z,5.47
2022-10-04T17:43:06.120Z,4.60
2022-10-04T17:45:56.303Z,4.23
2022-10-04T17:48:44.956Z,5.20
2022-10-04T17:51:46.617Z,4.57
2022-10-04T17:54:35.228Z,5.40
2022-10-04T17:57:16.156Z,4.60
2022-10-04T17:59:45.636Z,5.13
2022-10-04T18:02:20.584Z,5.43
2022-10-04T18:04:51.178Z,5.67
2022-10-04T18:07:22.769Z,6.13
2022-10-04T18:10:04.785Z,8.17
2022-10-04T18:12:38.468Z,6.90
2022-10-04T18:15:15.876Z,6.17
2022-10-04T18:17:44.966Z,8.23
2022-10-04T18:20:27.462Z,7.50
2022-10-04T18:23:00.578Z,7.80
2022-10-04T18:25:31.330Z,7.67
2022-10-04T18:28:05.908Z,7.13
2022-10-04T18:30:33.858Z,6.93
2022-10-04T18:33:04.457Z,6.50
2022-10-04T18:35:33.023Z,6.60
2022-10-04T18:38:23.625Z,7.03
2022-10-04T18:40:56.367Z,6.20
2022-10-04T18:43:29.744Z,5.60
2022-10-04T18:46:01.952Z,5.33
2022-10-04T18:48:38.603Z,4.77
2022-10-04T18:51:27.249Z,5.90
2022-10-04T18:54:11.050Z,5.73
2022-10-04T18:56:50.990Z,5.83
2022-10-04T18:59:51.428Z,6.03
2022-10-04T19:02:25.172Z,5.90
2022-10-04T19:05:04.051Z,5.87
2022-10-04T19:07:40.132Z,5.77
2022-10-04T19:10:15.608Z,5.30
2022-10-04T19:12:53.519Z,7.10
2022-10-04T19:15:39.528Z,5.10
2022-10-04T19:18:18.717Z,7.13
2022-10-04T19:20:52.495Z,5.23
2022-10-04T19:23:30.340Z,5.50
2022-10-04T19:29:02.911Z,5.00
2022-10-04T19:31:38.041Z,5.33
2022-10-04T19:34:11.725Z,6.20
2022-10-04T19:36:49.689Z,4.87
2022-10-04T19:39:30.730Z,5.40
2022-10-04T19:42:01.548Z,5.30
2022-10-04T19:45:02.944Z,6.10
2022-10-04T19:47:56.248Z,5.70
2022-10-04T19:50:26.984Z,5.63
2022-10-04T19:52:59.555Z,4.70
2022-10-04T19:55:43.219Z,4.67
2022-10-04T19:58:23.516Z,4.87
2022-10-04T20:00:51.301Z,5.37
2022-10-04T20:03:18.312Z,4.90
2022-10-04T20:05:47.860Z,5.40
2022-10-04T20:15:44.598Z,5.63
2022-10-04T20:18:44.685Z,4.80
2022-10-04T20:21:26.385Z,4.93
2022-10-04T20:23:57.053Z,5.20
2022-10-04T20:26:58.178Z,5.20
2022-10-04T20:30:00.949Z,4.67
2022-10-04T20:32:54.164Z,5.10
2022-10-04T20:36:07.773Z,6.33
2022-10-04T20:38:49.809Z,7.20
2022-10-04T20:42:00.733Z,6.57
2022-10-04T20:44:46.636Z,5.80
2022-10-04T20:47:23.514Z,6.63
2022-10-04T20:49:53.105Z,6.43
2022-10-04T20:52:22.175Z,6.37
2022-10-04T20:54:51.641Z,7.57
2022-10-04T20:57:19.604Z,6.60
2022-10-04T20:59:47.171Z,5.93
2022-10-04T21:02:17.442Z,6.87
2022-10-04T21:04:46.622Z,5.50
2022-10-04T21:07:18.415Z,5.83
2022-10-04T21:09:45.973Z,5.77
2022-10-04T21:12:29.036Z,5.50
2022-10-04T21:15:04.612Z,5.57
2022-10-04T21:17:39.511Z,5.67
2022-10-04T21:20:13.027Z,5.53
2022-10-04T21:22:41.126Z,5.27
2022-10-04T21:25:33.573Z,5.13
2022-10-04T21:28:22.637Z,5.37
2022-10-04T21:30:49.282Z,5.70
2022-10-04T21:33:16.036Z,5.33
2022-10-04T21:35:42.958Z,5.23
2022-10-04T21:38:10.229Z,5.00
2022-10-04T21:40:36.769Z,5.37
2022-10-04T21:43:03.329Z,5.23
2022-10-04T21:45:29.945Z,5.33
2022-10-04T21:47:56.766Z,5.10
2022-10-04T21:50:23.442Z,5.60
2022-10-04T21:52:50.107Z,4.87
2022-10-04T21:55:17.891Z,4.37
2022-10-04T21:57:44.542Z,4.83
2022-10-04T22:00:12.073Z,4.97
2022-10-04T22:02:39.090Z,4.17
2022-10-04T22:05:06.253Z,4.37
2022-10-04T22:07:32.894Z,4.20
2022-10-04T22:09:59.558Z,5.00
2022-10-04T22:12:26.882Z,4.73
2022-10-04T22:14:53.769Z,4.97
2022-10-04T22:17:20.381Z,3.97
2022-10-04T22:19:47.007Z,4.87
2022-10-04T22:22:14.731Z,4.20
2022-10-04T22:24:41.317Z,4.40
2022-10-04T22:27:12.855Z,4.83
2022-10-04T22:29:40.585Z,4.37
2022-10-04T22:32:12.554Z,4.63
2022-10-04T22:34:39.732Z,4.10
2022-10-04T22:37:11.000Z,4.23
2022-10-04T22:39:38.474Z,4.90
2022-10-04T22:42:05.602Z,4.37
2022-10-04T22:44:35.921Z,4.37
2022-10-04T22:47:04.405Z,4.63
2022-10-04T22:49:33.599Z,4.87
2022-10-04T22:52:10.129Z,4.57
2022-10-04T22:54:41.447Z,4.50
2022-10-04T22:57:09.875Z,4.17
2022-10-04T22:59:39.417Z,4.27
2022-10-04T23:02:10.360Z,4.23
2022-10-04T23:04:36.979Z,3.87
2022-10-04T23:07:03.856Z,4.20
2022-10-04T23:09:30.767Z,3.80
2022-10-04T23:11:57.396Z,5.10
2022-10-04T23:14:24.071Z,4.37
2022-10-04T23:16:50.720Z,4.67
2022-10-04T23:19:19.714Z,4.07
2022-10-04T23:21:48.004Z,4.17
2022-10-04T23:24:16.499Z,4.63
2022-10-04T23:26:45.975Z,4.03
2022-10-04T23:29:18.521Z,3.70
2022-10-04T23:31:46.611Z,4.17
2022-10-04T23:34:18.349Z,4.23
2022-10-04T23:36:46.246Z,4.37
2022-10-04T23:39:21.853Z,4.20
2022-10-04T23:41:48.579Z,4.03
2022-10-04T23:44:15.864Z,5.17
2022-10-04T23:46:43.679Z,4.20
2022-10-04T23:49:15.120Z,4.47
2022-10-04T23:51:43.155Z,4.27
2022-10-04T23:54:14.737Z,3.43
2022-10-04T23:56:41.872Z,4.03
2022-10-04T23:59:15.062Z,4.13
